createdAt,value
2019-02-09T00:01:15.700Z,5.30
2019-02-09T00:03:57.185Z,5.20
2019-02-09T00:06:37.083Z,5.10
2019-02-09T00:09:16.743Z,5.10
2019-02-09T00:11:56.675Z,5.10
2019-02-09T00:14:36.460Z,5.20
2019-02-09T00:17:16.303Z,5.10
2019-02-09T00:19:56.201Z,5.10
2019-02-09T00:22:36.073Z,5.00
2019-02-09T00:25:16.177Z,5.00
2019-02-09T00:27:55.944Z,5.00
2019-02-09T00:30:41.402Z,5.00
2019-02-09T00:33:21.248Z,5.00
2019-02-09T00:36:01.042Z,4.90
2019-02-09T00:38:40.884Z,5.00
2019-02-09T00:41:20.660Z,4.90
2019-02-09T00:44:00.322Z,4.90
2019-02-09T00:46:40.087Z,4.90
2019-02-09T00:49:19.869Z,4.90
2019-02-09T00:51:59.730Z,4.80
2019-02-09T00:54:40.670Z,4.60
2019-02-09T00:57:20.526Z,4.60
2019-02-09T01:00:00.399Z,4.60
2019-02-09T01:02:40.359Z,4.50
2019-02-09T01:05:24.253Z,4.50
2019-02-09T01:08:04.306Z,4.50
2019-02-09T01:10:44.131Z,4.50
2019-02-09T01:13:24.025Z,4.50
2019-02-09T01:16:03.737Z,4.40
2019-02-09T01:18:43.489Z,4.40
2019-02-09T01:21:23.585Z,4.50
2019-02-09T01:24:03.337Z,4.60
2019-02-09T01:26:43.119Z,4.60
2019-02-09T01:29:22.837Z,4.60
2019-02-09T01:32:02.635Z,4.60
2019-02-09T01:34:42.574Z,4.60
2019-02-09T01:37:22.286Z,4.50
2019-02-09T01:40:02.067Z,4.60
2019-02-09T01:42:41.823Z,4.70
2019-02-09T01:45:25.082Z,4.60
2019-02-09T01:48:05.712Z,4.50
2019-02-09T01:50:45.637Z,4.40
2019-02-09T01:53:25.475Z,4.30
2019-02-09T01:56:05.394Z,4.50
2019-02-09T01:58:45.237Z,4.70
2019-02-09T02:01:25.230Z,4.90
2019-02-09T02:04:05.670Z,4.90
2019-02-09T02:06:45.476Z,5.10
2019-02-09T02:09:25.578Z,5.20
2019-02-09T02:12:06.338Z,5.30
2019-02-09T02:14:46.082Z,5.40
2019-02-09T02:17:25.948Z,5.50
2019-02-09T02:20:09.415Z,5.40
2019-02-09T02:22:49.223Z,5.40
2019-02-09T02:25:29.211Z,5.40
2019-02-09T02:28:09.073Z,5.30
2019-02-09T02:30:49.598Z,5.40
2019-02-09T02:33:31.511Z,5.40
2019-02-09T02:36:12.869Z,5.30
2019-02-09T02:38:52.809Z,5.30
2019-02-09T02:41:32.772Z,5.30
2019-02-09T02:44:12.666Z,5.30
2019-02-09T02:46:54.667Z,5.30
2019-02-09T02:49:34.337Z,5.30
2019-02-09T02:52:14.080Z,5.30
2019-02-09T02:54:53.931Z,5.20
2019-02-09T02:57:33.703Z,5.20
2019-02-09T03:00:17.871Z,5.20
2019-02-09T03:03:00.920Z,5.10
2019-02-09T03:05:41.546Z,5.00
2019-02-09T03:08:22.353Z,5.00
2019-02-09T03:11:02.175Z,4.90
2019-02-09T03:13:41.861Z,4.90
2019-02-09T03:16:21.775Z,4.00
2019-02-09T03:19:01.606Z,4.80
2019-02-09T03:21:41.453Z,4.70
2019-02-09T03:24:21.284Z,4.60
2019-02-09T03:27:01.155Z,4.60
2019-02-09T03:29:40.994Z,4.50
2019-02-09T03:32:20.766Z,4.50
2019-02-09T03:35:00.026Z,4.40
2019-02-09T03:37:39.981Z,4.40
2019-02-09T03:40:21.532Z,4.30
2019-02-09T03:43:02.459Z,4.20
2019-02-09T03:45:41.701Z,4.10
2019-02-09T03:48:21.455Z,4.20
2019-02-09T03:51:01.355Z,4.10
2019-02-09T03:53:41.204Z,4.00
2019-02-09T03:56:20.906Z,4.10
2019-02-09T03:59:00.607Z,4.10
2019-02-09T04:01:41.801Z,4.10
2019-02-09T04:04:21.718Z,4.00
2019-02-09T04:07:00.912Z,4.00
2019-02-09T04:09:40.140Z,4.00
2019-02-09T04:12:19.393Z,4.00
2019-02-09T04:14:58.478Z,4.00
2019-02-09T04:17:37.812Z,4.00
2019-02-09T04:20:19.275Z,4.00
2019-02-09T04:22:58.631Z,4.10
2019-02-09T04:25:38.396Z,4.00
2019-02-09T04:28:17.692Z,4.00
2019-02-09T04:31:05.254Z,4.10
2019-02-09T04:33:39.235Z,4.10
2019-02-09T04:36:19.015Z,4.20
2019-02-09T04:39:00.814Z,4.40
2019-02-09T04:41:40.697Z,4.50
2019-02-09T04:44:22.182Z,4.80
2019-02-09T04:47:02.065Z,5.00
2019-02-09T04:49:41.727Z,5.20
2019-02-09T04:52:24.511Z,5.40
2019-02-09T04:55:05.051Z,5.70
2019-02-09T04:57:44.915Z,5.80
2019-02-09T05:00:43.892Z,5.90
2019-02-09T05:03:23.960Z,5.90
2019-02-09T05:06:07.559Z,5.90
2019-02-09T05:08:47.530Z,5.90
2019-02-09T05:11:27.240Z,5.80
2019-02-09T05:14:07.246Z,5.80
2019-02-09T05:16:47.034Z,5.80
2019-02-09T05:19:26.964Z,4.90
2019-02-09T05:22:06.897Z,5.90
2019-02-09T05:24:46.731Z,5.90
2019-02-09T05:27:26.517Z,6.00
2019-02-09T05:30:10.510Z,6.00
2019-02-09T05:32:50.252Z,6.10
2019-02-09T05:35:30.163Z,6.10
2019-02-09T05:38:09.924Z,6.10
2019-02-09T05:40:49.827Z,6.00
2019-02-09T05:43:29.721Z,6.00
2019-02-09T05:46:09.628Z,6.00
2019-02-09T05:48:49.404Z,6.10
2019-02-09T05:51:38.067Z,6.20
2019-02-09T05:54:17.733Z,6.20
2019-02-09T05:56:57.371Z,6.40
2019-02-09T05:59:37.187Z,6.50
2019-02-09T06:02:17.144Z,6.50
2019-02-09T06:04:58.192Z,6.50
2019-02-09T06:07:38.100Z,6.50
2019-02-09T06:10:18.055Z,6.50
2019-02-09T06:13:10.862Z,6.50
2019-02-09T06:15:50.666Z,6.50
2019-02-09T06:18:30.311Z,6.50
2019-02-09T06:21:10.121Z,6.40
2019-02-09T06:23:49.700Z,6.40
2019-02-09T06:26:29.454Z,6.40
2019-02-09T06:29:09.314Z,6.60
2019-02-09T06:31:49.116Z,6.80
2019-02-09T06:34:28.892Z,6.90
2019-02-09T06:37:09.205Z,6.90
2019-02-09T06:39:49.096Z,7.00
2019-02-09T06:42:32.280Z,6.90
2019-02-09T06:45:19.178Z,6.90
2019-02-09T06:48:27.349Z,7.00
2019-02-09T06:51:08.559Z,7.00
2019-02-09T06:53:49.524Z,7.10
2019-02-09T06:56:29.298Z,7.30
2019-02-09T06:59:09.042Z,7.40
2019-02-09T07:01:49.035Z,7.40
2019-02-09T07:04:28.763Z,7.50
2019-02-09T07:07:12.065Z,7.50
2019-02-09T07:09:52.198Z,7.50
2019-02-09T07:12:32.036Z,7.50
2019-02-09T07:15:16.458Z,7.60
2019-02-09T07:17:56.397Z,7.60
2019-02-09T07:20:36.365Z,7.70
2019-02-09T07:23:16.276Z,7.70
2019-02-09T07:25:56.080Z,7.70
2019-02-09T07:28:35.834Z,7.70
2019-02-09T07:31:15.625Z,7.70
2019-02-09T07:33:55.365Z,7.70
2019-02-09T07:36:35.320Z,7.70
2019-02-09T07:39:15.892Z,7.80
2019-02-09T07:41:56.645Z,7.80
2019-02-09T07:44:36.400Z,7.80
2019-02-09T07:47:16.126Z,7.80
2019-02-09T07:49:56.158Z,7.80
2019-02-09T07:52:35.952Z,7.80
2019-02-09T07:55:16.234Z,7.80
2019-02-09T07:57:56.041Z,7.80
2019-02-09T08:00:36.729Z,7.70
2019-02-09T08:03:16.461Z,7.80
2019-02-09T08:05:56.291Z,7.80
2019-02-09T08:08:36.158Z,7.80
2019-02-09T08:11:15.897Z,7.70
2019-02-09T08:13:55.678Z,7.60
2019-02-09T08:16:36.797Z,7.60
2019-02-09T08:19:16.640Z,7.70
2019-02-09T08:21:56.400Z,7.70
2019-02-09T08:24:36.105Z,7.80
2019-02-09T08:27:23.281Z,8.90
2019-02-09T08:29:57.546Z,11.00
2019-02-09T08:32:37.003Z,13.10
2019-02-09T08:35:16.547Z,14.30
2019-02-09T08:37:56.391Z,15.50
2019-02-09T08:40:35.969Z,15.20
2019-02-09T08:43:15.568Z,15.90
2019-02-09T08:45:55.039Z,16.20
2019-02-09T08:48:34.420Z,14.40
2019-02-09T08:51:15.377Z,13.60
2019-02-09T08:53:54.801Z,12.60
2019-02-09T08:56:34.271Z,12.40
2019-02-09T08:59:13.781Z,13.50
2019-02-09T09:01:55.517Z,14.40
2019-02-09T09:04:34.956Z,14.70
2019-02-09T09:07:15.790Z,15.60
2019-02-09T09:09:55.252Z,15.50
2019-02-09T09:12:34.706Z,15.20
2019-02-09T09:15:23.353Z,14.60
2019-02-09T09:18:04.229Z,14.80
2019-02-09T09:20:48.295Z,15.80
2019-02-09T09:23:27.718Z,16.40
2019-02-09T09:26:07.455Z,15.70
2019-02-09T09:28:47.898Z,16.50
2019-02-09T09:31:27.588Z,16.30
2019-02-09T09:34:07.244Z,16.90
2019-02-09T09:36:46.968Z,16.70
2019-02-09T09:39:26.790Z,17.10
2019-02-09T09:42:07.204Z,17.20
2019-02-09T09:44:46.686Z,17.50
2019-02-09T09:47:26.344Z,17.80
2019-02-09T09:50:07.474Z,19.00
2019-02-09T09:52:47.010Z,19.50
2019-02-09T09:55:27.006Z,18.30
2019-02-09T09:58:07.059Z,17.60
2019-02-09T10:00:47.702Z,16.90
2019-02-09T10:03:27.240Z,17.00
2019-02-09T10:06:08.930Z,16.40
2019-02-09T10:08:48.692Z,17.10
2019-02-09T10:11:28.561Z,18.50
2019-02-09T10:14:11.279Z,19.10
2019-02-09T10:16:50.452Z,19.30
2019-02-09T10:19:29.897Z,17.50
2019-02-09T10:22:09.605Z,16.10
2019-02-09T10:24:50.257Z,16.50
2019-02-09T10:27:31.064Z,16.30
2019-02-09T10:30:20.272Z,16.10
2019-02-09T10:33:00.119Z,16.80
2019-02-09T10:35:39.776Z,17.00
2019-02-09T10:38:19.121Z,17.40
2019-02-09T10:40:58.732Z,16.60
2019-02-09T10:43:39.319Z,16.90
2019-02-09T10:46:18.845Z,15.70
2019-02-09T10:48:58.304Z,15.70
2019-02-09T10:51:37.839Z,15.70
2019-02-09T10:54:18.285Z,15.80
2019-02-09T10:56:57.726Z,15.50
2019-02-09T10:59:37.284Z,15.90
2019-02-09T11:02:16.744Z,16.00
2019-02-09T11:04:56.287Z,16.00
2019-02-09T11:07:35.780Z,16.30
2019-02-09T11:10:19.014Z,16.80
2019-02-09T11:12:59.188Z,16.40
2019-02-09T11:15:38.899Z,17.50
2019-02-09T11:18:18.568Z,17.40
2019-02-09T11:20:58.096Z,17.20
2019-02-09T11:23:39.126Z,17.10
2019-02-09T11:26:19.131Z,16.50
2019-02-09T11:28:58.697Z,16.60
2019-02-09T11:31:39.923Z,16.50
2019-02-09T11:34:23.748Z,16.40
2019-02-09T11:37:03.539Z,16.80
2019-02-09T11:39:43.724Z,16.40
2019-02-09T11:42:23.502Z,16.60
2019-02-09T11:45:03.144Z,18.10
2019-02-09T11:47:44.818Z,17.60
2019-02-09T11:50:25.722Z,17.70
2019-02-09T11:53:07.951Z,18.20
2019-02-09T11:55:47.435Z,18.40
2019-02-09T11:58:30.244Z,18.30
2019-02-09T12:01:10.487Z,18.10
2019-02-09T12:03:50.188Z,18.80
2019-02-09T12:06:30.320Z,19.90
2019-02-09T12:09:14.289Z,20.20
2019-02-09T12:11:55.091Z,19.00
2019-02-09T12:14:35.203Z,17.50
2019-02-09T12:17:16.535Z,16.80
2019-02-09T12:19:56.195Z,16.30
2019-02-09T12:22:35.728Z,15.10
2019-02-09T12:25:21.082Z,14.40
2019-02-09T12:28:01.086Z,13.60
2019-02-09T12:30:43.678Z,13.30
2019-02-09T12:33:23.625Z,13.00
2019-02-09T12:36:03.958Z,13.90
2019-02-09T12:38:46.656Z,14.50
2019-02-09T12:41:26.215Z,15.60
2019-02-09T12:44:06.095Z,17.10
2019-02-09T12:46:48.308Z,16.40
2019-02-09T12:49:27.836Z,16.20
2019-02-09T12:52:09.769Z,17.30
2019-02-09T12:54:49.420Z,17.30
2019-02-09T12:57:28.884Z,18.40
2019-02-09T13:00:23.069Z,18.50
2019-02-09T13:03:12.615Z,18.10
2019-02-09T13:05:52.240Z,18.00
2019-02-09T13:08:31.732Z,18.50
2019-02-09T13:11:14.118Z,18.40
2019-02-09T13:13:53.734Z,17.80
2019-02-09T13:16:33.298Z,16.60
2019-02-09T13:19:15.325Z,15.90
2019-02-09T13:21:55.086Z,16.40
2019-02-09T13:24:34.805Z,16.80
2019-02-09T13:27:14.571Z,15.60
2019-02-09T13:29:54.146Z,15.50
2019-02-09T13:32:35.051Z,16.60
2019-02-09T13:35:14.871Z,16.80
2019-02-09T13:37:54.505Z,17.60
2019-02-09T13:40:34.120Z,17.50
2019-02-09T13:43:13.652Z,17.30
2019-02-09T13:45:54.043Z,17.30
2019-02-09T13:48:33.502Z,16.20
2019-02-09T13:51:13.163Z,17.20
2019-02-09T13:53:52.612Z,17.10
2019-02-09T13:56:33.940Z,16.90
2019-02-09T13:59:13.498Z,17.00
2019-02-09T14:01:53.065Z,15.80
2019-02-09T14:04:33.505Z,17.30
2019-02-09T14:07:13.326Z,16.80
2019-02-09T14:09:54.442Z,16.50
2019-02-09T14:12:33.891Z,15.80
2019-02-09T14:15:18.021Z,15.50
2019-02-09T14:18:02.031Z,16.00
2019-02-09T14:20:41.816Z,15.40
2019-02-09T14:23:21.505Z,14.90
2019-02-09T14:26:01.167Z,14.70
2019-02-09T14:28:40.812Z,14.40
2019-02-09T14:31:20.366Z,14.00
2019-02-09T14:33:59.826Z,13.90
2019-02-09T14:36:39.519Z,14.20
2019-02-09T14:39:19.058Z,14.30
2019-02-09T14:41:58.693Z,13.90
2019-02-09T14:44:38.227Z,13.00
2019-02-09T14:47:17.789Z,12.60
2019-02-09T14:49:57.204Z,12.30
2019-02-09T14:52:36.768Z,11.90
2019-02-09T14:55:24.206Z,11.40
2019-02-09T14:58:04.370Z,11.10
2019-02-09T15:00:50.703Z,11.10
2019-02-09T15:03:30.899Z,10.90
2019-02-09T15:06:10.939Z,10.80
2019-02-09T15:08:50.464Z,10.60
2019-02-09T15:11:29.820Z,10.60
2019-02-09T15:14:09.619Z,10.60
2019-02-09T15:16:53.713Z,10.60
2019-02-09T15:19:37.689Z,10.60
2019-02-09T15:22:17.400Z,10.50
2019-02-09T15:24:57.098Z,10.70
2019-02-09T15:27:36.863Z,10.40
2019-02-09T15:30:21.960Z,10.20
2019-02-09T15:33:01.735Z,10.20
2019-02-09T15:35:42.252Z,10.10
2019-02-09T15:38:22.859Z,10.00
2019-02-09T15:41:02.723Z,9.80
2019-02-09T15:43:42.401Z,9.70
2019-02-09T15:46:22.033Z,9.70
2019-02-09T15:49:02.388Z,9.60
2019-02-09T15:51:44.113Z,9.40
2019-02-09T15:54:23.892Z,9.20
2019-02-09T15:57:04.219Z,9.20
2019-02-09T15:59:43.843Z,9.10
2019-02-09T16:02:23.606Z,8.90
2019-02-09T16:05:03.360Z,8.90
2019-02-09T16:07:43.155Z,8.90
2019-02-09T16:10:24.126Z,8.80
2019-02-09T16:13:03.915Z,8.80
2019-02-09T16:15:43.739Z,8.70
2019-02-09T16:18:23.496Z,8.70
2019-02-09T16:21:03.280Z,8.70
2019-02-09T16:23:45.790Z,8.70
2019-02-09T16:26:25.836Z,8.70
2019-02-09T16:29:05.655Z,8.60
2019-02-09T16:31:45.491Z,8.60
2019-02-09T16:34:25.835Z,8.60
2019-02-09T16:37:09.375Z,8.60
2019-02-09T16:39:51.394Z,8.60
2019-02-09T16:42:31.181Z,8.50
2019-02-09T16:45:19.010Z,8.50
2019-02-09T16:48:05.357Z,8.50
2019-02-09T16:50:45.102Z,8.50
2019-02-09T16:53:26.046Z,8.50
2019-02-09T16:56:06.450Z,8.50
2019-02-09T16:58:47.696Z,8.50
2019-02-09T17:01:29.407Z,8.40
2019-02-09T17:04:09.052Z,8.50
2019-02-09T17:06:48.760Z,8.50
2019-02-09T17:09:29.893Z,8.50
2019-02-09T17:12:09.673Z,8.40
2019-02-09T17:14:49.832Z,8.40
2019-02-09T17:17:29.599Z,8.40
2019-02-09T17:20:10.747Z,8.40
2019-02-09T17:22:51.744Z,8.40
2019-02-09T17:25:32.186Z,8.40
2019-02-09T17:28:12.036Z,8.30
2019-02-09T17:30:53.923Z,8.30
2019-02-09T17:33:33.604Z,8.30
2019-02-09T17:36:13.291Z,8.40
2019-02-09T17:38:55.555Z,8.40
2019-02-09T17:41:35.830Z,8.50
2019-02-09T17:44:19.301Z,8.50
2019-02-09T17:47:01.763Z,8.40
2019-02-09T17:49:41.542Z,8.40
2019-02-09T17:52:21.428Z,8.30
2019-02-09T17:55:02.311Z,8.40
2019-02-09T17:57:42.072Z,8.40
2019-02-09T18:00:29.515Z,8.40
2019-02-09T18:03:10.484Z,8.50
2019-02-09T18:05:50.135Z,8.40
2019-02-09T18:08:29.933Z,8.50
2019-02-09T18:11:09.806Z,8.40
2019-02-09T18:13:49.482Z,8.40
2019-02-09T18:16:29.437Z,8.40
2019-02-09T18:19:09.522Z,8.40
2019-02-09T18:21:49.721Z,8.40
2019-02-09T18:24:33.826Z,8.40
2019-02-09T18:27:13.582Z,8.40
2019-02-09T18:29:53.377Z,8.30
2019-02-09T18:32:33.158Z,8.30
2019-02-09T18:35:13.270Z,8.30
2019-02-09T18:37:53.368Z,8.30
2019-02-09T18:40:33.093Z,8.30
2019-02-09T18:43:13.074Z,8.30
2019-02-09T18:45:57.905Z,8.30
2019-02-09T18:48:35.966Z,8.20
2019-02-09T18:51:15.815Z,8.30
2019-02-09T18:53:55.678Z,8.20
2019-02-09T18:56:35.730Z,8.30
2019-02-09T18:59:15.737Z,8.30
2019-02-09T19:01:58.198Z,8.20
2019-02-09T19:04:37.935Z,8.20
2019-02-09T19:07:17.810Z,8.20
2019-02-09T19:09:57.774Z,8.20
2019-02-09T19:12:37.596Z,8.20
2019-02-09T19:15:18.636Z,8.20
2019-02-09T19:17:58.537Z,8.30
2019-02-09T19:20:50.876Z,8.30
2019-02-09T19:23:34.976Z,8.30
2019-02-09T19:26:14.955Z,8.30
2019-02-09T19:28:57.389Z,8.20
2019-02-09T19:31:42.065Z,8.20
2019-02-09T19:34:21.925Z,8.20
2019-02-09T19:37:01.618Z,8.10
2019-02-09T19:39:41.348Z,8.10
2019-02-09T19:42:21.152Z,8.10
2019-02-09T19:45:01.099Z,8.10
2019-02-09T19:47:40.850Z,8.10
2019-02-09T19:50:20.894Z,8.10
2019-02-09T19:53:01.011Z,8.10
2019-02-09T19:55:40.881Z,8.10
2019-02-09T19:58:20.689Z,8.10
2019-02-09T20:01:00.432Z,8.10
2019-02-09T20:03:40.320Z,8.10
2019-02-09T20:06:20.066Z,8.10
2019-02-09T20:08:59.955Z,8.00
2019-02-09T20:11:39.986Z,8.00
2019-02-09T20:14:19.705Z,8.00
2019-02-09T20:17:00.662Z,8.00
2019-02-09T20:19:40.416Z,8.00
2019-02-09T20:22:20.244Z,8.00
2019-02-09T20:25:00.278Z,8.00
2019-02-09T20:27:40.250Z,8.00
2019-02-09T20:30:26.608Z,7.90
2019-02-09T20:33:07.290Z,7.90
2019-02-09T20:35:47.238Z,7.90
2019-02-09T20:38:27.089Z,7.90
2019-02-09T20:41:09.050Z,7.90
2019-02-09T20:43:49.164Z,8.00
2019-02-09T20:46:29.030Z,7.90
2019-02-09T20:49:09.073Z,7.90
2019-02-09T20:51:52.423Z,7.90
2019-02-09T20:54:32.598Z,7.80
2019-02-09T20:57:12.521Z,7.80
2019-02-09T20:59:52.954Z,7.80
2019-02-09T21:02:32.698Z,7.70
2019-02-09T21:05:12.994Z,7.80
2019-02-09T21:07:53.201Z,7.80
2019-02-09T21:10:33.693Z,7.80
2019-02-09T21:13:13.497Z,7.70
2019-02-09T21:15:53.411Z,7.70
2019-02-09T21:18:33.428Z,7.70
2019-02-09T21:21:13.346Z,7.70
2019-02-09T21:23:53.479Z,7.60
2019-02-09T21:26:33.205Z,7.60
2019-02-09T21:29:16.687Z,7.60
2019-02-09T21:31:56.574Z,7.60
2019-02-09T21:34:36.530Z,7.60
2019-02-09T21:37:16.476Z,7.50
2019-02-09T21:39:56.481Z,7.50
2019-02-09T21:42:36.712Z,7.50
2019-02-09T21:45:18.066Z,7.50
2019-02-09T21:47:57.924Z,7.50
2019-02-09T21:50:38.254Z,7.40
2019-02-09T21:53:18.149Z,7.40
2019-02-09T21:55:57.957Z,7.40
2019-02-09T21:58:38.775Z,7.40
2019-02-09T22:01:18.689Z,7.50
2019-02-09T22:03:58.415Z,7.40
2019-02-09T22:06:38.450Z,7.40
2019-02-09T22:09:18.328Z,7.40
2019-02-09T22:11:58.265Z,7.40
2019-02-09T22:14:38.101Z,7.40
2019-02-09T22:17:17.887Z,7.40
2019-02-09T22:19:59.790Z,7.30
2019-02-09T22:22:39.816Z,7.30
2019-02-09T22:25:22.837Z,7.30
2019-02-09T22:28:02.751Z,7.30
2019-02-09T22:30:42.653Z,7.20
2019-02-09T22:33:24.969Z,7.30
2019-02-09T22:36:05.164Z,7.30
2019-02-09T22:38:45.233Z,7.30
2019-02-09T22:41:25.082Z,7.30
2019-02-09T22:44:05.791Z,7.30
2019-02-09T22:46:45.586Z,7.30
2019-02-09T22:49:26.906Z,7.30
2019-02-09T22:52:06.806Z,7.30
2019-02-09T22:54:46.544Z,7.20
2019-02-09T22:57:27.204Z,7.20
2019-02-09T23:00:36.755Z,7.20
2019-02-09T23:03:16.841Z,7.20
2019-02-09T23:06:52.333Z,7.20
2019-02-09T23:09:29.376Z,7.10
2019-02-09T23:12:09.191Z,7.00
2019-02-09T23:14:49.011Z,6.90
2019-02-09T23:17:28.707Z,6.90
2019-02-09T23:20:10.670Z,6.90
2019-02-09T23:22:50.357Z,6.90
2019-02-09T23:25:30.194Z,6.90
2019-02-09T23:28:10.012Z,6.90
2019-02-09T23:30:49.823Z,6.90
2019-02-09T23:33:29.687Z,6.90
2019-02-09T23:36:16.175Z,6.90
2019-02-09T23:38:50.977Z,6.90
2019-02-09T23:41:30.832Z,6.90
2019-02-09T23:44:10.945Z,6.90
2019-02-09T23:46:50.690Z,6.90
2019-02-09T23:49:30.372Z,6.80
2019-02-09T23:52:10.140Z,6.80
2019-02-09T23:54:49.922Z,6.70
2019-02-09T23:57:32.394Z,6.70
